Open Text PE Ratio 2010-2024 | OTEX

Current and historical p/e ratio for Open Text (OTEX) from 2010 to 2024. The price to earnings ratio is calculated by taking the latest closing price and dividing it by the most recent earnings per share (EPS) number. The PE ratio is a simple way to assess whether a stock is over or under valued and is the most widely used valuation measure. Open Text PE ratio as of June 12, 2024 is 7.78.

Please refer to the Stock Price Adjustment Guide for more information on our historical prices.

Open Text PE Ratio Historical Data
Date Stock Price TTM Net EPS PE Ratio
2024-06-12 28.82 46.48
2024-03-31 38.50 $0.62 62.10
2023-12-31 41.40 $0.47 88.07
2023-09-30 34.36 $1.29 26.64
2023-06-30 40.43 $0.56 72.19
2023-03-31 37.29 $1.12 33.30
2022-12-31 28.47 $1.19 23.92
2022-09-30 25.19 $0.55 45.80
2022-06-30 35.67 $1.46 24.43
2022-03-31 39.76 $1.74 22.85
2021-12-31 44.30 $1.79 24.75
2021-09-30 45.26 $1.23 36.80
2021-06-30 46.98 $1.13 41.58
2021-03-31 43.94 $0.57 77.09
2020-12-31 41.68 $0.34 122.59
2020-09-30 38.56 $0.98 39.34
2020-06-30 38.62 $0.87 44.40
2020-03-31 31.62 $1.04 30.40
2019-12-31 39.73 $1.21 32.84
2019-09-30 36.65 $1.20 30.54
2019-06-30 36.83 $1.06 34.75
2019-03-31 34.21 $1.02 33.54
2018-12-31 28.90 $0.97 29.80
2018-09-30 33.72 $0.90 37.47
2018-06-30 31.08 $0.91 34.15
2018-03-31 30.60 $0.85 36.00
2017-12-31 31.25 $0.71 44.01
2017-09-30 28.17 $0.57 49.43
2017-06-30 27.41 $4.16 6.59
2017-03-31 29.43 $4.35 6.77
2016-12-31 26.65 $4.55 5.86
2016-09-30 27.87 $4.73 5.89
2016-06-30 25.32 $1.17 21.64
2016-03-31 22.09 $1.10 20.17
2015-12-31 20.35 $0.92 22.12
2015-09-30 18.92 $0.86 22.00
2015-06-30 17.06 $0.96 17.87
2015-03-31 22.16 $1.04 21.41
2014-12-31 24.34 $1.12 21.83
2014-09-30 23.08 $1.04 22.20
2014-06-30 19.91 $0.91 22.00
2014-03-31 19.74 $0.72 27.32
2013-12-31 18.97 $0.64 29.52
2013-09-30 15.34 $0.68 22.65
2013-06-30 14.01 $0.63 22.24
2013-03-31 12.03 $0.49 24.67
2012-12-31 11.39 $0.53 21.69
2012-09-30 11.24 $0.47 24.03
2012-06-30 10.17 $0.54 19.01
2012-03-31 12.46 $0.62 20.02
2011-12-31 10.42 $0.63 16.61
2011-09-30 10.62 $0.59 18.15
2011-06-30 13.04 $0.53 24.73
2011-03-31 12.70 $0.63 20.24
2010-12-31 9.39 $0.53 17.62
2010-09-30 9.58 $0.47 20.61
2010-06-30 7.65 $0.38 20.13
2010-03-31 9.67 $0.25 39.08
2009-12-31 8.28 $0.29 28.32
Sector Industry Market Cap Revenue
Computer and Technology Computer Software $7.730B $4.485B
Open Text Corporation is engaged in development of innovative intranet, extranet and e-Business applications. Since creating one of the first search engines to index the World Wide Web, the company has remained at the forefront of Internet-based technologies. Open Text solutions allow individuals, teams, organizations, and global trading communities to collaborate on projects, share ideas and accelerate innovation to the fastest possible speed. Open Text Corporation is headquartered in Waterloo, Canada.
Stock Name Country Market Cap PE Ratio
Microsoft (MSFT) United States $3215.810B 37.46
Oracle (ORCL) United States $340.484B 27.71
Salesforce (CRM) United States $233.519B 34.78
Adobe (ADBE) United States $207.285B 34.66
Intuit (INTU) United States $158.419B 49.36
Synopsys (SNPS) United States $88.852B 61.24
Cadence Design Systems (CDNS) United States $81.953B 77.93
Dassault Systemes SA (DASTY) France $52.828B 34.32
Autodesk (ADSK) United States $45.684B 41.55
ANSYS (ANSS) United States $28.209B 52.20
MicroStrategy (MSTR) United States $27.590B 0.00
PTC (PTC) United States $20.888B 55.40
SS&C Technologies Holdings (SSNC) United States $15.186B 14.38
Manhattan Associates (MANH) United States $13.934B 73.96
Descartes Systems Group (DSGX) Canada $7.869B 65.89
Trend Micro (TMICY) Japan $6.420B 46.50
Pegasystems (PEGA) United States $4.962B 43.88
CommVault Systems (CVLT) United States $4.906B 80.16
Blackbaud (BLKB) United States $3.962B 34.11
ACI Worldwide (ACIW) United States $3.622B 17.35
Verint Systems (VRNT) United States $2.261B 21.18
Progress Software (PRGS) United States $2.181B 13.86
Sapiens (SPNS) Israel $1.876B 25.58
BlackBerry (BB) Canada $1.629B 0.00
PROS Holdings (PRO) United States $1.303B 0.00
Simulations Plus (SLP) United States $0.921B 67.75
Rand Worldwide (RWWI) United States $0.689B 0.00
Magic Software Enterprises (MGIC) Israel $0.524B 11.12
American Software (AMSWA) United States $0.311B 26.74
Canaan (CAN) China $0.300B 0.00
OptimizeRx (OPRX) United States $0.207B 0.00
Rigetti Computing (RGTI) United States $0.181B 0.00
Icad Inc (ICAD) United States $0.041B 0.00
Neonode (NEON) Sweden $0.035B 0.00
Wetouch Technology (WETH) $0.034B 0.00
NetSol Technologies (NTWK) United States $0.031B 0.00
Hanryu Holdings (HRYU) South Korea $0.022B 0.00
Smith Micro Software (SMSI) United States $0.021B 0.00
GSE Systems (GVP) United States $0.012B 0.00
SAP SE (SAP) Germany $0.000B 48.27